Mao, Dominican Republic
Current Conditions -  °F | °C
As of 5:00 PM on Thursday 20 Nov 2014 (Local Time) from MDST Reporting Station
Scattered Clouds Scattered Clouds  
Wind Chill: 84°   Ceiling: Unl
Heat Index: 90°   Visibility: 6mi
Dew Point: 72°   Wind: 13mph
Humidity: 66%   Direction: 80°E
Pressure: 29.91"   Gusts: NA
Location:  19.56°N, 71.08°W
Report Text: MDST 202100Z 08011KT 9999 FEW023CB FEW025 SCT080 29/22 Q1013 CB/S/SW/NW
Loading
Personal Weather Stations






























Interactive Weather Map New forecast layout! Learn more

10-Day Weather Forecast

Advertisements
Track Severe Weather on mobile